Time;durP1;ratioP1;P1;durP2;ratioP2;P2;SDS_P1;SDS_P2;PMS_P1;PMS_P2;Temp;Humidity;BMP_temperature;BMP_pressure;BME280_temperature;BME280_humidity;BME280_pressure;Samples;Min_cycle;Max_cycle;Signal;HPM_P1;HPM_P2
2022/06/04 00:00:54;;;;;;;0.40;0.20;;;;;;;16.90;54.10;100806.05;103228;1284;95702;-66
2022/06/04 00:03:23;;;;;;;0.40;0.20;;;;;;;16.89;53.77;100806.27;102805;1284;138388;-66
2022/06/04 00:05:53;;;;;;;0.40;0.20;;;;;;;16.93;53.88;100801.63;103493;1284;109690;-68
2022/06/04 00:08:21;;;;;;;0.40;0.20;;;;;;;16.89;53.89;100794.79;102792;1284;99938;-69
2022/06/04 00:16:27;;;;;;;0.40;0.20;;;;;;;16.76;54.01;100788.02;102752;1284;138753;-68
2022/06/04 00:18:56;;;;;;;0.40;0.20;;;;;;;16.76;54.22;100786.77;103283;1284;109887;-68
2022/06/04 00:21:24;;;;;;;0.40;0.10;;;;;;;16.80;54.32;100781.39;102657;1284;138859;-66
2022/06/04 00:23:52;;;;;;;0.40;0.10;;;;;;;16.77;54.56;100780.77;102923;1284;109564;-68
2022/06/04 00:26:20;;;;;;;0.40;0.10;;;;;;;16.76;54.44;100773.49;102903;1284;95507;-68
2022/06/04 00:28:48;;;;;;;0.40;0.20;;;;;;;16.71;54.38;100770.67;102818;1284;138108;-67
2022/06/04 00:31:18;;;;;;;0.40;0.10;;;;;;;16.68;54.43;100770.27;102916;1283;109807;-68
2022/06/04 00:33:46;;;;;;;0.40;0.20;;;;;;;16.65;54.86;100770.21;102655;1284;138389;-68
2022/06/04 00:36:14;;;;;;;0.40;0.20;;;;;;;16.60;54.72;100768.34;102790;1284;109352;-67
2022/06/04 00:38:45;;;;;;;0.40;0.20;;;;;;;16.54;54.68;100771.59;102965;1284;95282;-68
2022/06/04 00:41:29;;;;;;;0.40;0.20;;;;;;;16.50;54.78;100769.30;102665;1284;139040;-68
2022/06/04 00:44:19;;;;;;;0.40;0.20;;;;;;;16.47;55.13;100774.08;102841;1284;110095;-68
2022/06/04 00:47:09;;;;;;;0.40;0.20;;;;;;;16.50;54.83;100770.72;103263;1284;138612;-67
2022/06/04 00:49:37;;;;;;;0.40;0.20;;;;;;;16.54;54.70;100765.17;102718;1284;108857;-66
2022/06/04 00:52:11;;;;;;;0.40;0.20;;;;;;;16.53;54.90;100763.42;102562;1284;141238;-66
2022/06/04 00:54:40;;;;;;;0.40;0.20;;;;;;;16.54;54.72;100766.39;102812;1284;95887;-67
2022/06/04 00:57:16;;;;;;;0.40;0.20;;;;;;;16.57;54.88;100764.31;102805;1284;138410;-67
2022/06/04 01:00:24;;;;;;;0.40;0.20;;;;;;;16.54;54.96;100762.63;102874;1284;99607;-67
2022/06/04 01:03:08;;;;;;;0.40;0.20;;;;;;;16.51;55.01;100760.61;102018;1290;138364;-67
2022/06/04 01:05:49;;;;;;;0.40;0.20;;;;;;;16.49;55.23;100755.17;102073;1291;95763;-68
2022/06/04 01:08:49;;;;;;;0.40;0.20;;;;;;;16.51;55.51;100747.90;102675;1284;96359;-68
2022/06/04 01:11:37;;;;;;;0.40;0.10;;;;;;;16.53;55.49;100749.60;102781;1284;109849;-67
2022/06/04 01:14:29;;;;;;;0.40;0.20;;;;;;;16.52;55.30;100744.65;102312;1284;99367;-67
2022/06/04 01:17:10;;;;;;;0.40;0.20;;;;;;;16.50;55.32;100742.94;102702;1283;138227;-65
2022/06/04 01:19:59;;;;;;;0.40;0.20;;;;;;;16.53;55.63;100740.29;102507;1287;95659;-68
2022/06/04 01:22:33;;;;;;;0.40;0.20;;;;;;;16.55;55.50;100732.13;102705;1284;138756;-67
2022/06/04 01:25:16;;;;;;;0.40;0.20;;;;;;;16.53;55.49;100731.34;103062;1284;109639;-67
2022/06/04 01:27:56;;;;;;;0.40;0.20;;;;;;;16.62;55.48;100729.48;102594;1284;139458;-68
2022/06/04 01:30:34;;;;;;;0.40;0.20;;;;;;;16.65;55.30;100730.40;102904;1284;109192;-68
2022/06/04 01:33:09;;;;;;;0.40;0.20;;;;;;;16.62;55.14;100726.27;102819;1284;139676;-68
2022/06/04 01:35:47;;;;;;;0.40;0.20;;;;;;;16.59;55.05;100724.63;102914;1284;95983;-66
2022/06/04 01:38:31;;;;;;;0.40;0.20;;;;;;;16.58;55.30;100719.98;102781;1284;108740;-68
2022/06/04 01:41:22;;;;;;;0.40;0.20;;;;;;;16.56;55.44;100722.61;102627;1284;138743;-66
2022/06/04 01:43:57;;;;;;;0.40;0.20;;;;;;;16.49;55.33;100723.06;102671;1284;108871;-67
2022/06/04 01:46:41;;;;;;;0.40;0.20;;;;;;;16.55;55.15;100725.14;102786;1284;138680;-67
2022/06/04 01:49:28;;;;;;;0.40;0.10;;;;;;;16.54;55.02;100719.80;103141;1284;95956;-67
2022/06/04 01:52:00;;;;;;;0.40;0.20;;;;;;;16.59;55.08;100724.45;102817;1284;138570;-67
2022/06/04 01:54:35;;;;;;;0.40;0.20;;;;;;;16.54;55.13;100730.18;102793;1284;99450;-66
2022/06/04 01:57:29;;;;;;;0.40;0.20;;;;;;;16.54;55.17;100730.02;102760;1284;138410;-67
2022/06/04 02:00:01;;;;;;;0.40;0.20;;;;;;;16.51;54.94;100725.31;102651;1285;95400;-67
2022/06/04 02:02:42;;;;;;;0.40;0.20;;;;;;;16.48;55.11;100722.05;103228;1283;95681;-67
2022/06/04 02:05:16;;;;;;;0.40;0.20;;;;;;;16.51;55.10;100709.91;102756;1284;139525;-67
2022/06/04 02:07:48;;;;;;;0.40;0.10;;;;;;;16.50;55.17;100704.58;103061;1284;99456;-68
2022/06/04 02:10:23;;;;;;;0.40;0.20;;;;;;;16.44;55.48;100692.88;102989;1284;138257;-69
2022/06/04 02:12:54;;;;;;;0.40;0.20;;;;;;;16.40;55.28;100689.64;102783;1285;95749;-68
2022/06/04 02:15:33;;;;;;;0.40;0.20;;;;;;;16.33;55.22;100692.09;103007;1284;138416;-68
2022/06/04 02:18:03;;;;;;;0.40;0.20;;;;;;;16.32;55.47;100685.67;103100;1284;110402;-68
2022/06/04 02:20:31;;;;;;;0.40;0.20;;;;;;;16.28;55.05;100683.19;102755;1284;99462;-67
2022/06/04 02:22:59;;;;;;;0.40;0.20;;;;;;;16.28;55.59;100685.86;102914;1283;138648;-67
2022/06/04 02:25:29;;;;;;;0.40;0.20;;;;;;;16.34;55.42;100687.21;102944;1284;95563;-67
2022/06/04 02:27:58;;;;;;;0.40;0.20;;;;;;;16.32;54.86;100682.64;102818;1284;139267;-67
2022/06/04 02:30:36;;;;;;;0.40;0.20;;;;;;;16.33;55.31;100685.47;103495;1284;109801;-67
2022/06/04 02:33:14;;;;;;;0.40;0.20;;;;;;;16.34;54.88;100679.48;103169;1284;138450;-67
2022/06/04 02:35:53;;;;;;;0.40;0.20;;;;;;;16.33;55.02;100678.45;102918;1284;109486;-67
2022/06/04 02:38:39;;;;;;;0.40;0.20;;;;;;;16.31;55.00;100671.77;102819;1284;95633;-67
2022/06/04 02:41:17;;;;;;;0.40;0.20;;;;;;;16.27;55.46;100666.20;102878;1284;137983;-67
2022/06/04 02:43:51;;;;;;;0.40;0.20;;;;;;;16.26;55.47;100666.45;103009;1285;109733;-67
2022/06/04 02:46:33;;;;;;;0.40;0.20;;;;;;;16.29;55.63;100661.86;102745;1284;138814;-68
2022/06/04 02:49:12;;;;;;;0.40;0.10;;;;;;;16.31;55.25;100664.60;103068;1284;108958;-66
2022/06/04 02:51:45;;;;;;;0.40;0.20;;;;;;;16.39;55.27;100667.48;102691;1284;139473;-67
2022/06/04 02:54:18;;;;;;;0.40;0.20;;;;;;;16.42;55.21;100669.29;102862;1284;95734;-68
2022/06/04 02:56:49;;;;;;;0.40;0.20;;;;;;;16.48;55.25;100665.98;102906;1283;108804;-68
2022/06/04 02:59:18;;;;;;;0.40;0.20;;;;;;;16.48;55.30;100661.27;103357;1284;99440;-65
2022/06/04 03:01:51;;;;;;;0.40;0.20;;;;;;;16.45;55.26;100660.20;102820;1284;108124;-69
2022/06/04 03:04:20;;;;;;;0.40;0.20;;;;;;;16.44;55.05;100657.36;102937;1284;138833;-67
2022/06/04 03:06:48;;;;;;;0.40;0.20;;;;;;;16.48;55.28;100655.92;103044;1284;95170;-68
2022/06/04 03:09:18;;;;;;;0.40;0.10;;;;;;;16.50;54.80;100658.70;102635;1284;138729;-69
2022/06/04 03:11:49;;;;;;;0.40;0.20;;;;;;;16.49;54.78;100661.80;102745;1284;99493;-68
2022/06/04 03:14:19;;;;;;;0.40;0.20;;;;;;;16.52;54.92;100670.23;103055;1284;109808;-69
2022/06/04 03:16:48;;;;;;;0.40;0.10;;;;;;;16.55;55.02;100674.58;102698;1284;138679;-67
2022/06/04 03:19:17;;;;;;;0.40;0.10;;;;;;;16.56;55.13;100670.44;102752;1284;95276;-68
2022/06/04 03:21:45;;;;;;;0.40;0.20;;;;;;;16.55;55.28;100662.77;102841;1284;138301;-69
2022/06/04 03:24:14;;;;;;;0.40;0.20;;;;;;;16.54;55.16;100659.57;102941;1284;99380;-70
2022/06/04 03:26:42;;;;;;;0.40;0.20;;;;;;;16.53;55.04;100653.14;103125;1284;107121;-67
2022/06/04 03:29:10;;;;;;;0.40;0.20;;;;;;;16.55;55.47;100652.36;102932;1284;138905;-66
2022/06/04 03:31:38;;;;;;;0.40;0.20;;;;;;;16.59;55.07;100652.91;102753;1284;95497;-67
2022/06/04 03:34:06;;;;;;;0.40;0.20;;;;;;;16.59;54.99;100655.77;102661;1284;138513;-67
2022/06/04 03:36:35;;;;;;;0.40;0.10;;;;;;;16.61;55.09;100656.42;102935;1284;98763;-67
2022/06/04 03:39:05;;;;;;;0.40;0.10;;;;;;;16.66;55.25;100651.30;102816;1284;138321;-67
2022/06/04 03:41:39;;;;;;;0.40;0.10;;;;;;;16.68;54.86;100649.06;103007;1284;95233;-66
2022/06/04 03:44:07;;;;;;;0.40;0.20;;;;;;;16.69;55.32;100650.64;102954;1284;95777;-64
2022/06/04 03:46:35;;;;;;;0.40;0.10;;;;;;;16.74;55.49;100651.81;102765;1284;138234;-67
2022/06/04 03:49:04;;;;;;;0.40;0.10;;;;;;;16.77;55.31;100650.98;106630;1284;100006;-67
2022/06/04 03:51:32;;;;;;;0.40;0.10;;;;;;;16.79;55.50;100651.59;106396;1284;138581;-68
2022/06/04 03:54:00;;;;;;;0.40;0.20;;;;;;;16.83;55.28;100646.91;104355;1284;95165;-67
2022/06/04 03:56:28;;;;;;;0.40;0.20;;;;;;;16.88;55.24;100641.30;102854;1284;95261;-68
2022/06/04 03:58:56;;;;;;;0.40;0.10;;;;;;;16.91;54.98;100637.95;102793;1284;139340;-67
2022/06/04 04:01:27;;;;;;;0.40;0.10;;;;;;;16.98;55.03;100635.64;102954;1284;99706;-66
2022/06/04 04:03:56;;;;;;;0.40;0.10;;;;;;;17.07;55.11;100630.38;103000;1283;138221;-67
2022/06/04 04:06:27;;;;;;;0.40;0.10;;;;;;;17.18;55.33;100632.86;103117;1283;95642;-67
2022/06/04 04:08:56;;;;;;;0.40;0.10;;;;;;;17.36;55.16;100624.21;103039;1284;138465;-67
2022/06/04 04:11:27;;;;;;;0.40;0.10;;;;;;;17.50;55.05;100620.46;102947;1284;110026;-67
2022/06/04 04:13:54;;;;;;;0.40;0.10;;;;;;;17.56;54.62;100611.39;103050;1284;98425;-68
2022/06/04 04:16:23;;;;;;;0.40;0.10;;;;;;;17.60;54.03;100609.05;102837;1284;137970;-67
2022/06/04 04:18:51;;;;;;;0.40;0.20;;;;;;;17.65;53.84;100606.24;102973;1284;96023;-67
2022/06/04 04:21:22;;;;;;;0.40;0.10;;;;;;;17.68;54.08;100599.98;103187;1284;138333;-68
2022/06/04 04:23:50;;;;;;;0.40;0.10;;;;;;;17.72;54.06;100596.51;103111;1284;109707;-66
2022/06/04 04:26:18;;;;;;;0.40;0.10;;;;;;;17.81;53.83;100599.27;102946;1284;99396;-68
2022/06/04 04:28:45;;;;;;;0.40;0.10;;;;;;;17.84;53.87;100606.68;102895;1284;138388;-67
2022/06/04 04:31:17;;;;;;;0.40;0.10;;;;;;;17.85;53.69;100616.27;102999;1284;95688;-68
2022/06/04 04:33:46;;;;;;;0.40;0.20;;;;;;;17.88;53.60;100621.20;103033;1284;138267;-66
2022/06/04 04:36:14;;;;;;;0.40;0.10;;;;;;;17.93;53.61;100626.70;102955;1283;109438;-67
2022/06/04 04:38:42;;;;;;;0.40;0.10;;;;;;;17.93;53.36;100625.63;102934;1284;99443;-67
2022/06/04 04:41:12;;;;;;;0.40;0.10;;;;;;;17.95;53.34;100629.83;102857;1284;137989;-68
2022/06/04 04:43:40;;;;;;;0.40;0.10;;;;;;;17.95;53.29;100634.49;102855;1284;95982;-69
2022/06/04 04:46:11;;;;;;;0.40;0.10;;;;;;;17.96;53.53;100633.21;104313;1283;138173;-69
2022/06/04 04:48:40;;;;;;;0.40;0.10;;;;;;;18.04;54.43;100630.39;103975;1284;109882;-67
2022/06/04 04:51:17;;;;;;;0.40;0.10;;;;;;;18.09;53.57;100622.10;106503;1284;139232;-68
2022/06/04 04:53:47;;;;;;;0.40;0.10;;;;;;;18.13;54.04;100615.73;103059;1284;109280;-69
2022/06/04 04:56:17;;;;;;;0.40;0.10;;;;;;;18.19;53.73;100608.94;103146;1284;95883;-66
2022/06/04 04:58:45;;;;;;;0.40;0.10;;;;;;;18.22;54.51;100600.54;102990;1284;139870;-67
2022/06/04 05:01:19;;;;;;;0.40;0.10;;;;;;;18.29;54.33;100598.68;102806;1284;109765;-68
2022/06/04 05:03:47;;;;;;;0.40;0.10;;;;;;;18.44;54.25;100599.88;102865;1284;139116;-68
2022/06/04 05:06:17;;;;;;;0.40;0.10;;;;;;;18.58;53.58;100602.14;102932;1284;108971;-67
2022/06/04 05:08:46;;;;;;;0.40;0.10;;;;;;;18.66;53.37;100601.48;102969;1284;95991;-67
2022/06/04 05:11:16;;;;;;;0.40;0.10;;;;;;;18.71;52.35;100598.52;103037;1284;95518;-67
2022/06/04 05:13:49;;;;;;;0.40;0.10;;;;;;;18.82;52.86;100599.86;103042;1284;109646;-65
2022/06/04 05:16:19;;;;;;;0.40;0.10;;;;;;;18.92;52.85;100596.06;102957;1284;138768;-66
2022/06/04 05:18:48;;;;;;;0.40;0.10;;;;;;;18.98;52.25;100599.48;102915;1284;108912;-68
2022/06/04 05:21:34;;;;;;;0.40;0.10;;;;;;;19.03;52.16;100599.22;102967;1284;300235;-68
2022/06/04 05:24:03;;;;;;;0.40;0.10;;;;;;;19.13;51.38;100599.75;103041;1284;96194;-68
2022/06/04 05:26:32;;;;;;;0.40;0.10;;;;;;;19.20;51.73;100604.16;102780;1284;109832;-68
2022/06/04 05:29:00;;;;;;;0.40;0.10;;;;;;;19.33;51.72;100602.88;102831;1284;138930;-68
2022/06/04 05:31:28;;;;;;;0.40;0.10;;;;;;;19.46;51.63;100602.27;102961;1284;109044;-68
2022/06/04 05:33:59;;;;;;;0.40;0.10;;;;;;;19.57;50.61;100601.61;102728;1284;138435;-68
2022/06/04 05:36:29;;;;;;;0.40;0.10;;;;;;;19.63;50.51;100599.64;102915;1284;95180;-68
2022/06/04 05:38:57;;;;;;;0.40;0.10;;;;;;;19.72;50.78;100600.67;102928;1284;138830;-67
2022/06/04 05:41:25;;;;;;;0.40;0.10;;;;;;;19.79;50.15;100598.64;102952;1284;98554;-66
2022/06/04 05:43:53;;;;;;;0.40;0.10;;;;;;;19.87;50.47;100598.92;102818;1284;108922;-68
2022/06/04 05:46:22;;;;;;;0.40;0.10;;;;;;;19.99;50.58;100603.38;102915;1282;138400;-67
2022/06/04 05:48:50;;;;;;;0.40;0.10;;;;;;;20.13;50.76;100601.77;102950;1284;95732;-69
2022/06/04 05:51:24;;;;;;;0.40;0.10;;;;;;;20.25;49.61;100602.49;103018;1284;138369;-68
2022/06/04 05:53:53;;;;;;;0.40;0.10;;;;;;;20.27;49.23;100601.29;102928;1284;98613;-68
2022/06/04 05:56:24;;;;;;;0.40;0.10;;;;;;;20.31;49.36;100602.98;103351;1284;109502;-66
2022/06/04 05:58:55;;;;;;;0.40;0.10;;;;;;;20.40;49.24;100606.20;104468;1284;138682;-67
2022/06/04 06:01:24;;;;;;;0.40;0.10;;;;;;;20.53;50.21;100613.13;102824;1284;95943;-68
2022/06/04 06:03:53;;;;;;;0.40;0.10;;;;;;;20.64;50.02;100615.48;102934;1283;138199;-69
2022/06/04 06:06:25;;;;;;;0.40;0.10;;;;;;;20.69;49.03;100617.34;102881;1284;99910;-67
2022/06/04 06:09:02;;;;;;;0.40;0.10;;;;;;;20.68;49.41;100612.16;102781;1284;139011;-68
2022/06/04 06:11:30;;;;;;;0.40;0.10;;;;;;;20.76;49.62;100608.79;102989;1284;95778;-68
2022/06/04 06:13:59;;;;;;;0.40;0.10;;;;;;;20.78;48.74;100610.30;102911;1284;95301;-68
2022/06/04 06:16:30;;;;;;;0.40;0.10;;;;;;;20.75;48.92;100614.10;103278;1284;138279;-65
2022/06/04 06:18:59;;;;;;;0.40;0.10;;;;;;;20.79;49.08;100617.45;103051;1284;99473;-67
2022/06/04 06:21:29;;;;;;;0.40;0.10;;;;;;;20.84;48.57;100617.80;103073;1284;138952;-68
2022/06/04 06:23:58;;;;;;;0.40;0.10;;;;;;;20.85;48.14;100621.20;102851;1284;95264;-67
2022/06/04 06:26:29;;;;;;;0.40;0.10;;;;;;;20.86;47.74;100622.06;102917;1284;96110;-67
2022/06/04 06:29:00;;;;;;;0.40;0.10;;;;;;;20.93;47.90;100618.73;103042;1283;138584;-66
2022/06/04 06:31:30;;;;;;;0.40;0.10;;;;;;;21.03;47.96;100614.57;102923;1284;99980;-67
2022/06/04 06:33:58;;;;;;;0.40;0.10;;;;;;;21.13;48.11;100608.88;102985;1284;138263;-67
2022/06/04 06:36:26;;;;;;;0.40;0.10;;;;;;;21.20;48.21;100610.98;102880;1284;97767;-68
2022/06/04 06:38:54;;;;;;;0.40;0.10;;;;;;;21.29;47.62;100615.20;102947;1284;138230;-69
2022/06/04 06:41:24;;;;;;;0.40;0.10;;;;;;;21.40;47.68;100611.02;102872;1284;109754;-68
2022/06/04 06:43:53;;;;;;;0.40;0.10;;;;;;;21.51;47.22;100611.36;103051;1284;99530;-68
2022/06/04 06:46:44;;;;;;;0.40;0.10;;;;;;;21.58;47.01;100609.27;103425;1284;138283;-67
2022/06/04 06:49:14;;;;;;;0.40;0.10;;;;;;;21.65;46.66;100607.58;102857;1284;95759;-68
2022/06/04 06:51:48;;;;;;;0.40;0.10;;;;;;;21.74;46.81;100599.73;102806;1284;138158;-68
2022/06/04 06:54:18;;;;;;;0.40;0.10;;;;;;;21.90;47.48;100597.48;102942;1284;108279;-69
2022/06/04 06:56:48;;;;;;;0.40;0.10;;;;;;;22.13;47.06;100598.20;102886;1284;99427;-68
2022/06/04 06:59:20;;;;;;;0.40;0.10;;;;;;;22.24;46.70;100599.60;103108;1283;108654;-68
2022/06/04 07:01:49;;;;;;;0.40;0.10;;;;;;;22.46;47.21;100596.02;102844;1284;97302;-69
2022/06/04 07:04:21;;;;;;;0.40;0.10;;;;;;;22.69;46.26;100597.43;103026;1284;138311;-69
2022/06/04 07:06:52;;;;;;;0.40;0.10;;;;;;;22.88;45.97;100606.57;103253;1284;109718;-66
2022/06/04 07:09:22;;;;;;;0.40;0.10;;;;;;;23.07;46.10;100608.36;102782;1284;138945;-68
2022/06/04 07:11:50;;;;;;;0.40;0.10;;;;;;;23.20;44.60;100603.06;102905;1284;108851;-68
2022/06/04 07:14:20;;;;;;;0.40;0.10;;;;;;;23.38;44.68;100606.75;102823;1284;96038;-68
2022/06/04 07:16:48;;;;;;;0.40;0.10;;;;;;;23.50;44.83;100605.48;102743;1284;138485;-68
2022/06/04 07:19:17;;;;;;;0.40;0.00;;;;;;;23.59;43.95;100602.33;102796;1284;109751;-67
2022/06/04 07:21:45;;;;;;;0.40;0.00;;;;;;;23.58;43.79;100602.02;103437;1284;138952;-68
2022/06/04 07:24:14;;;;;;;0.40;0.10;;;;;;;23.63;43.42;100603.73;102914;1284;108799;-69
2022/06/04 07:26:42;;;;;;;0.40;0.10;;;;;;;23.69;42.75;100602.62;103006;1284;95255;-68
2022/06/04 07:29:11;;;;;;;0.40;0.00;;;;;;;23.75;42.57;100598.73;102735;1284;138089;-66
2022/06/04 07:31:39;;;;;;;0.40;0.00;;;;;;;23.73;42.35;100597.39;103124;1284;109717;-68
2022/06/04 07:34:08;;;;;;;0.40;0.00;;;;;;;23.74;42.69;100600.53;102829;1284;138845;-68
2022/06/04 07:36:40;;;;;;;0.40;0.00;;;;;;;23.88;43.60;100597.86;103082;1284;108504;-69
2022/06/04 07:39:09;;;;;;;0.40;0.00;;;;;;;23.96;44.07;100596.14;102877;1284;138522;-69
2022/06/04 07:41:43;;;;;;;0.40;0.00;;;;;;;24.00;43.77;100602.56;103105;1284;95276;-68
2022/06/04 07:44:13;;;;;;;0.40;0.00;;;;;;;24.09;43.27;100596.59;103023;1284;109453;-68
2022/06/04 07:46:42;;;;;;;0.40;0.00;;;;;;;24.20;43.90;100600.02;102899;1284;138895;-68
2022/06/04 07:49:11;;;;;;;0.40;0.00;;;;;;;24.27;42.65;100600.01;102903;1284;107633;-68
2022/06/04 07:51:41;;;;;;;0.40;0.00;;;;;;;24.30;42.52;100599.23;102763;1284;138359;-68
2022/06/04 07:54:10;;;;;;;0.40;0.00;;;;;;;24.47;43.05;100604.23;103012;1284;95161;-68
2022/06/04 07:56:39;;;;;;;0.40;0.00;;;;;;;24.61;42.49;100597.48;103012;1284;109602;-69
2022/06/04 07:59:10;;;;;;;0.40;0.00;;;;;;;24.75;42.48;100599.05;103035;1284;138181;-68
2022/06/04 08:01:38;;;;;;;0.40;0.00;;;;;;;24.87;42.13;100597.14;103129;1284;109382;-69
2022/06/04 08:04:06;;;;;;;0.40;0.00;;;;;;;24.95;43.00;100594.52;102871;1284;138432;-69
2022/06/04 08:06:34;;;;;;;0.40;0.00;;;;;;;25.04;41.97;100596.30;102961;1284;95254;-70
2022/06/04 08:09:02;;;;;;;0.40;0.00;;;;;;;25.08;42.16;100596.17;102739;1284;138893;-69
2022/06/04 08:11:34;;;;;;;0.40;0.00;;;;;;;25.12;42.45;100594.35;102962;1284;99779;-70
2022/06/04 08:14:13;;;;;;;0.40;0.00;;;;;;;25.04;41.61;100596.27;102876;1284;108925;-68
2022/06/04 08:16:44;;;;;;;0.40;0.00;;;;;;;24.97;41.12;100594.73;102963;1284;138799;-67
2022/06/04 08:19:13;;;;;;;0.40;0.00;;;;;;;24.90;41.52;100595.83;103089;1284;95233;-66
2022/06/04 08:21:41;;;;;;;0.40;0.00;;;;;;;24.85;42.61;100595.34;102960;1284;138240;-68
2022/06/04 08:24:11;;;;;;;0.40;0.00;;;;;;;24.78;42.70;100596.77;102776;1284;100668;-68
2022/06/04 08:26:42;;;;;;;0.40;0.00;;;;;;;24.67;41.86;100594.80;102691;1285;108791;-68
2022/06/04 08:29:10;;;;;;;0.40;0.00;;;;;;;24.60;43.68;100587.95;102867;1284;138496;-69
2022/06/04 08:31:38;;;;;;;0.40;0.00;;;;;;;24.63;44.02;100589.49;102829;1284;95205;-67
2022/06/04 08:34:06;;;;;;;0.40;0.00;;;;;;;24.66;43.67;100586.52;102889;1284;138668;-66
2022/06/04 08:36:34;;;;;;;0.40;0.10;;;;;;;24.69;43.86;100586.48;102895;1284;99437;-68
2022/06/04 08:39:03;;;;;;;0.40;0.00;;;;;;;24.70;44.28;100582.74;102818;1284;138833;-68
2022/06/04 08:41:48;;;;;;;0.40;0.00;;;;;;;24.60;44.26;100581.05;102901;1284;95742;-69
2022/06/04 08:44:26;;;;;;;0.40;0.00;;;;;;;24.44;42.85;100582.46;102740;1285;95248;-68
2022/06/04 08:47:00;;;;;;;0.40;0.00;;;;;;;24.38;43.53;100586.04;102752;1284;138059;-68
2022/06/04 08:49:33;;;;;;;0.40;0.00;;;;;;;24.32;44.33;100593.09;102927;1284;98114;-66
2022/06/04 08:52:10;;;;;;;0.40;0.00;;;;;;;24.23;42.86;100589.65;103072;1284;137277;-68
2022/06/04 08:57:41;;;;;;;0.40;0.00;;;;;;;24.20;44.96;100586.77;102871;1284;138993;-68
2022/06/04 09:00:25;;;;;;;0.40;0.00;;;;;;;24.19;43.57;100586.70;103105;1284;108683;-67
2022/06/04 09:03:08;;;;;;;0.40;0.10;;;;;;;24.10;44.89;100585.74;102869;1284;138556;-66
2022/06/04 09:06:05;;;;;;;0.40;0.00;;;;;;;24.01;43.52;100584.64;103034;1284;108553;-67
2022/06/04 09:09:06;;;;;;;0.40;0.10;;;;;;;24.02;44.97;100580.45;102949;1284;95538;-66
2022/06/04 09:12:12;;;;;;;0.40;0.00;;;;;;;23.95;43.57;100578.45;102800;1283;95696;-67
2022/06/04 09:14:57;;;;;;;0.40;0.00;;;;;;;23.89;44.57;100580.88;102179;1284;109825;-67
2022/06/04 09:17:36;;;;;;;0.40;0.00;;;;;;;23.92;44.72;100577.25;102640;1284;97789;-69
2022/06/04 09:20:30;;;;;;;0.40;0.00;;;;;;;23.97;45.83;100576.27;103579;1284;107812;-69
2022/06/04 09:23:05;;;;;;;0.40;0.00;;;;;;;23.91;44.43;100572.61;102483;1284;138377;-69
2022/06/04 09:25:44;;;;;;;0.40;0.00;;;;;;;23.90;45.06;100579.75;102730;1284;95231;-68
2022/06/04 09:28:28;;;;;;;0.40;0.00;;;;;;;23.94;45.93;100581.95;102688;1284;138911;-67
2022/06/04 09:31:20;;;;;;;0.40;0.00;;;;;;;24.00;44.29;100581.81;102612;1287;100081;-69
2022/06/04 09:33:55;;;;;;;0.40;0.00;;;;;;;24.06;45.74;100585.92;102791;1284;138430;-68
2022/06/04 09:36:27;;;;;;;0.40;0.00;;;;;;;24.05;45.04;100588.39;103530;1284;96487;-68
2022/06/04 09:39:19;;;;;;;0.40;0.00;;;;;;;24.00;46.34;100591.50;102746;1284;138475;-69
2022/06/04 09:42:03;;;;;;;0.40;0.00;;;;;;;23.96;45.88;100592.52;102860;1284;110006;-68
2022/06/04 09:44:36;;;;;;;0.40;0.00;;;;;;;23.91;44.13;100595.09;102924;1284;99455;-68
2022/06/04 09:47:17;;;;;;;0.40;0.00;;;;;;;23.83;43.83;100594.23;102770;1284;138130;-68
2022/06/04 09:50:17;;;;;;;0.40;0.00;;;;;;;23.75;43.68;100595.93;102859;1284;95275;-68
2022/06/04 09:52:56;;;;;;;0.40;0.00;;;;;;;23.71;43.75;100599.01;102703;1284;138275;-66
2022/06/04 09:55:25;;;;;;;0.40;0.00;;;;;;;23.71;43.99;100600.27;103440;1284;110047;-69
2022/06/04 09:58:05;;;;;;;0.40;0.00;;;;;;;23.77;46.40;100604.31;102635;1287;139870;-68
2022/06/04 10:00:40;;;;;;;0.40;0.00;;;;;;;23.76;46.79;100605.14;102930;1284;108863;-69
2022/06/04 10:03:14;;;;;;;0.40;0.00;;;;;;;23.67;47.55;100609.23;102849;1284;139032;-69
2022/06/04 10:06:01;;;;;;;0.40;0.00;;;;;;;23.61;47.38;100611.55;102923;1284;95219;-69
2022/06/04 10:09:54;;;;;;;0.40;0.00;;;;;;;23.57;47.17;100607.36;103456;1284;109756;-70
2022/06/04 10:11:23;;;;;;;0.40;0.00;;;;;;;23.53;47.32;100610.88;103449;1284;99597;-69
2022/06/04 10:13:55;;;;;;;0.40;0.10;;;;;;;23.56;47.47;100618.27;103727;1284;108100;-68
2022/06/04 10:16:34;;;;;;;0.40;0.00;;;;;;;23.55;48.25;100617.64;103434;1284;138929;-69
2022/06/04 10:19:13;;;;;;;0.40;0.10;;;;;;;23.49;49.37;100620.99;103614;1284;95177;-69
2022/06/04 10:21:48;;;;;;;0.40;0.00;;;;;;;23.45;49.95;100621.14;103494;1284;138818;-69
2022/06/04 10:24:20;;;;;;;0.40;0.00;;;;;;;23.31;50.35;100623.48;103659;1284;99420;-69
2022/06/04 10:27:03;;;;;;;0.40;0.00;;;;;;;23.19;50.63;100627.95;103595;1284;108995;-69
2022/06/04 10:30:04;;;;;;;0.40;0.00;;;;;;;23.14;50.84;100626.89;103577;1284;95122;-68
2022/06/04 10:32:44;;;;;;;0.40;0.00;;;;;;;23.02;51.01;100632.13;103597;1284;95709;-69
2022/06/04 10:35:40;;;;;;;0.40;0.00;;;;;;;22.95;51.62;100626.86;102983;1284;108590;-69
2022/06/04 10:38:39;;;;;;;0.40;0.00;;;;;;;22.99;51.52;100628.73;103017;1284;100070;-69
2022/06/04 10:41:13;;;;;;;0.40;0.00;;;;;;;23.03;51.50;100631.84;102979;1284;138323;-69
2022/06/04 10:43:45;;;;;;;0.40;0.00;;;;;;;23.02;51.30;100631.93;103081;1284;95712;-67
2022/06/04 10:46:41;;;;;;;0.40;0.00;;;;;;;23.03;51.14;100632.06;102980;1284;138872;-67
2022/06/04 10:49:33;;;;;;;0.40;0.00;;;;;;;23.06;51.15;100625.66;103067;1284;110849;-68
2022/06/04 10:52:31;;;;;;;0.40;0.00;;;;;;;23.09;51.17;100623.67;102945;1284;138926;-68
2022/06/04 10:55:22;;;;;;;0.40;0.00;;;;;;;23.09;51.22;100622.22;103086;1284;108999;-69
2022/06/04 10:58:14;;;;;;;0.40;0.00;;;;;;;23.08;51.09;100619.40;102926;1284;138431;-68
2022/06/04 11:01:04;;;;;;;0.40;0.10;;;;;;;23.20;51.28;100608.16;103057;1284;95756;-69
2022/06/04 11:03:42;;;;;;;0.40;0.10;;;;;;;23.35;51.04;100605.55;102969;1284;138382;-68
2022/06/04 11:06:17;;;;;;;0.40;0.10;;;;;;;23.45;49.70;100604.48;102801;1284;97821;-69
2022/06/04 11:08:57;;;;;;;0.40;0.00;;;;;;;23.44;49.62;100602.73;103709;1284;109050;-70
2022/06/04 11:11:34;;;;;;;0.40;0.00;;;;;;;23.42;49.24;100601.41;103715;1284;95861;-68
2022/06/04 11:14:13;;;;;;;0.40;0.00;;;;;;;23.46;49.32;100604.36;102974;1284;95236;-69
2022/06/04 11:16:52;;;;;;;0.40;0.00;;;;;;;23.55;49.42;100598.63;102850;1284;138726;-67
2022/06/04 11:19:26;;;;;;;0.40;0.10;;;;;;;23.67;49.02;100592.08;103052;1284;99541;-69
2022/06/04 11:22:13;;;;;;;0.40;0.00;;;;;;;23.77;49.56;100587.80;103726;1284;138279;-69
2022/06/04 11:24:51;;;;;;;0.40;0.00;;;;;;;23.76;49.35;100584.11;103601;1284;95975;-69
2022/06/04 11:27:36;;;;;;;0.40;0.00;;;;;;;23.80;49.28;100583.23;102880;1284;138390;-70
2022/06/04 11:30:13;;;;;;;0.40;0.00;;;;;;;23.85;48.89;100583.38;102975;1284;109759;-70
2022/06/04 11:32:56;;;;;;;0.40;0.10;;;;;;;23.88;49.36;100583.49;103052;1284;99838;-68
2022/06/04 11:35:46;;;;;;;0.40;0.00;;;;;;;23.99;50.46;100588.30;102942;1284;109707;-69
2022/06/04 11:38:32;;;;;;;0.40;0.00;;;;;;;24.18;49.54;100584.59;103067;1284;95620;-69
2022/06/04 11:41:17;;;;;;;0.40;0.00;;;;;;;24.37;48.94;100583.98;103041;1284;138131;-70
2022/06/04 11:44:08;;;;;;;0.40;0.00;;;;;;;24.57;48.50;100579.98;102999;1284;109872;-70
2022/06/04 11:47:21;;;;;;;0.40;0.10;;;;;;;24.88;48.30;100577.07;102927;1284;138425;-69
2022/06/04 11:50:16;;;;;;;0.40;0.10;;;;;;;25.20;47.19;100571.36;102533;1287;108859;-69
2022/06/04 11:52:50;;;;;;;0.40;0.00;;;;;;;25.32;45.68;100566.14;103585;1284;138470;-70
2022/06/04 11:55:29;;;;;;;0.40;0.00;;;;;;;25.31;44.94;100565.14;103097;1284;95244;-69